THY94E EETN-LTFM
Flight info
| Callsign | THY94E |
|---|---|
| Flight time | N/A |
| Altitude | 31000 |
| Route | ORTAX1T DCT LUTAL DCT BERIL/N0447F330 DCT SUDAB DCT BOKSU/N0448F340 M857 BULEP DCT GERVI M857 PODAN/N0446F350 DCT ROBTU/N0446F340 DCT HATIP/N0447F350 DCT KENIN DCT TUMOP DCT BUVAK DCT VABUR L605 RIXEN1A |
| Aircraft | A321/M-SDE2E3FGHIRWY/LB1 |
Departure
| Time | 2026-04-27 16:53 |
|---|---|
| Airport | Lennart Meri Tallinn Airport (EETN) |
Arrival
| Time | N/A |
|---|---|
| Airport | İstanbul Airport (LTFM) |
| Time | Latitude | Longitude | Altitude | Speed | Heading |
|---|---|---|---|---|---|
| 2026-04-27 16:25 | 59.41582 | 24.80134 | 162 ft | 0 kts | 0° |
| 2026-04-27 16:39 | 59.41560 | 24.80134 | 162 ft | 4 kts | 7° |
| 2026-04-27 16:39 | 59.41537 | 24.80116 | 162 ft | 4 kts | 55° |
| 2026-04-27 16:39 | 59.41529 | 24.80072 | 162 ft | 2 kts | 90° |
| 2026-04-27 16:39 | 59.41529 | 24.80061 | 162 ft | 0 kts | 90° |
| 2026-04-27 16:42 | 59.41529 | 24.80073 | 162 ft | 2 kts | 91° |
| 2026-04-27 16:42 | 59.41529 | 24.80108 | 162 ft | 3 kts | 91° |
| 2026-04-27 16:43 | 59.41529 | 24.80162 | 162 ft | 5 kts | 91° |
| 2026-04-27 16:43 | 59.41528 | 24.80233 | 162 ft | 6 kts | 91° |
| 2026-04-27 16:43 | 59.41528 | 24.80319 | 162 ft | 7 kts | 91° |
| 2026-04-27 16:43 | 59.41523 | 24.80420 | 162 ft | 8 kts | 101° |
| 2026-04-27 16:44 | 59.41512 | 24.80536 | 162 ft | 9 kts | 101° |
| 2026-04-27 16:44 | 59.41505 | 24.80666 | 162 ft | 10 kts | 89° |
| 2026-04-27 16:44 | 59.41506 | 24.80809 | 162 ft | 11 kts | 90° |
| 2026-04-27 16:44 | 59.41506 | 24.80964 | 162 ft | 12 kts | 90° |
| 2026-04-27 16:45 | 59.41505 | 24.81130 | 162 ft | 13 kts | 90° |
| 2026-04-27 16:45 | 59.41505 | 24.81306 | 162 ft | 13 kts | 90° |
| 2026-04-27 16:45 | 59.41505 | 24.81489 | 162 ft | 14 kts | 90° |
| 2026-04-27 16:45 | 59.41504 | 24.81682 | 162 ft | 14 kts | 91° |
| 2026-04-27 16:46 | 59.41503 | 24.81883 | 162 ft | 15 kts | 90° |
| 2026-04-27 16:46 | 59.41502 | 24.82092 | 162 ft | 16 kts | 90° |
| 2026-04-27 16:46 | 59.41502 | 24.82307 | 162 ft | 16 kts | 90° |
| 2026-04-27 16:46 | 59.41502 | 24.82528 | 162 ft | 17 kts | 90° |
| 2026-04-27 16:47 | 59.41501 | 24.82759 | 162 ft | 17 kts | 90° |
| 2026-04-27 16:47 | 59.41500 | 24.82995 | 162 ft | 17 kts | 90° |
| 2026-04-27 16:47 | 59.41499 | 24.83236 | 162 ft | 18 kts | 90° |
| 2026-04-27 16:47 | 59.41499 | 24.83483 | 162 ft | 18 kts | 90° |
| 2026-04-27 16:48 | 59.41498 | 24.83732 | 162 ft | 19 kts | 90° |
| 2026-04-27 16:48 | 59.41498 | 24.83990 | 162 ft | 19 kts | 90° |
| 2026-04-27 16:48 | 59.41498 | 24.84254 | 162 ft | 20 kts | 90° |
| 2026-04-27 16:49 | 59.41495 | 24.84799 | 162 ft | 20 kts | 90° |
| 2026-04-27 16:49 | 59.41495 | 24.85080 | 162 ft | 21 kts | 90° |
| 2026-04-27 16:49 | 59.41494 | 24.85365 | 162 ft | 21 kts | 90° |
| 2026-04-27 16:49 | 59.41494 | 24.85652 | 162 ft | 21 kts | 90° |
| 2026-04-27 16:50 | 59.41493 | 24.85946 | 162 ft | 22 kts | 90° |
| 2026-04-27 16:50 | 59.41493 | 24.86245 | 162 ft | 22 kts | 90° |
| 2026-04-27 16:50 | 59.41492 | 24.86475 | 162 ft | 12 kts | 91° |
| 2026-04-27 16:50 | 59.41488 | 24.86639 | 162 ft | 12 kts | 104° |
| 2026-04-27 16:51 | 59.41423 | 24.86708 | 162 ft | 10 kts | 180° |
| 2026-04-27 16:51 | 59.41360 | 24.86708 | 162 ft | 9 kts | 180° |
| 2026-04-27 16:51 | 59.41320 | 24.86633 | 161 ft | 9 kts | 246° |
| 2026-04-27 16:51 | 59.41317 | 24.86535 | 160 ft | 7 kts | 270° |
| 2026-04-27 16:52 | 59.41317 | 24.86434 | 160 ft | 8 kts | 271° |
| 2026-04-27 16:52 | 59.41319 | 24.86159 | 160 ft | 50 kts | 271° |
| 2026-04-27 16:52 | 59.41322 | 24.85030 | 163 ft | 114 kts | 270° |
| 2026-04-27 16:52 | 59.41325 | 24.83120 | 184 ft | 163 kts | 272° |
| 2026-04-27 16:53 | 59.41326 | 24.80906 | 870 ft | 161 kts | 276° |
| 2026-04-27 16:53 | 59.41272 | 24.78671 | 1501 ft | 171 kts | 263° |
| 2026-04-27 16:53 | 59.40603 | 24.76616 | 1936 ft | 197 kts | 224° |
| 2026-04-27 16:53 | 59.39323 | 24.75232 | 2133 ft | 223 kts | 208° |
| 2026-04-27 16:54 | 59.37798 | 24.74078 | 2262 ft | 247 kts | 204° |
| 2026-04-27 16:54 | 59.36147 | 24.72927 | 2653 ft | 260 kts | 202° |
| 2026-04-27 16:54 | 59.34433 | 24.71721 | 3245 ft | 267 kts | 203° |
| 2026-04-27 16:54 | 59.32643 | 24.70406 | 3779 ft | 279 kts | 204° |
| 2026-04-27 16:55 | 59.30818 | 24.69014 | 4564 ft | 283 kts | 204° |
| 2026-04-27 16:55 | 59.28977 | 24.67568 | 5343 ft | 286 kts | 205° |
| 2026-04-27 16:55 | 59.27129 | 24.66088 | 6170 ft | 289 kts | 205° |
| 2026-04-27 16:55 | 59.25262 | 24.64578 | 6940 ft | 292 kts | 205° |
| 2026-04-27 16:56 | 59.23381 | 24.63050 | 7702 ft | 294 kts | 205° |
| 2026-04-27 16:56 | 59.21483 | 24.61504 | 8470 ft | 297 kts | 205° |
| 2026-04-27 16:56 | 59.19593 | 24.59962 | 9236 ft | 299 kts | 205° |
| 2026-04-27 16:56 | 59.17661 | 24.58394 | 10000 ft | 302 kts | 205° |
| 2026-04-27 16:57 | 59.15685 | 24.56794 | 10437 ft | 317 kts | 205° |
| 2026-04-27 16:57 | 59.13572 | 24.55082 | 10597 ft | 340 kts | 205° |
| 2026-04-27 16:57 | 59.11316 | 24.53262 | 10744 ft | 361 kts | 205° |
| 2026-04-27 16:57 | 59.08954 | 24.51367 | 11158 ft | 371 kts | 204° |
| 2026-04-27 16:58 | 59.06556 | 24.49448 | 11810 ft | 375 kts | 204° |
| 2026-04-27 16:58 | 59.04137 | 24.47517 | 12471 ft | 377 kts | 204° |
| 2026-04-27 16:58 | 59.01701 | 24.45569 | 13161 ft | 380 kts | 204° |
| 2026-04-27 16:58 | 58.99287 | 24.43636 | 13831 ft | 382 kts | 204° |
| 2026-04-27 16:59 | 58.96817 | 24.41663 | 14442 ft | 385 kts | 204° |
| 2026-04-27 16:59 | 58.94334 | 24.39684 | 15045 ft | 387 kts | 204° |
| 2026-04-27 16:59 | 58.91833 | 24.37696 | 15659 ft | 390 kts | 204° |
| 2026-04-27 16:59 | 58.89317 | 24.35700 | 16288 ft | 392 kts | 204° |
| 2026-04-27 17:00 | 58.85918 | 24.33009 | 17093 ft | 397 kts | 202° |
| 2026-04-27 17:00 | 58.81446 | 24.30690 | 18052 ft | 405 kts | 194° |
| 2026-04-27 17:00 | 58.78694 | 24.29487 | 18644 ft | 406 kts | 194° |
| 2026-04-27 17:01 | 58.75962 | 24.28292 | 19131 ft | 410 kts | 194° |
| 2026-04-27 17:01 | 58.73174 | 24.27073 | 19640 ft | 413 kts | 194° |
| 2026-04-27 17:01 | 58.70356 | 24.25843 | 20093 ft | 417 kts | 194° |
| 2026-04-27 17:01 | 58.67517 | 24.24603 | 20547 ft | 421 kts | 194° |
| 2026-04-27 17:02 | 58.64652 | 24.23350 | 20985 ft | 425 kts | 194° |
| 2026-04-27 17:02 | 58.61759 | 24.22090 | 21405 ft | 428 kts | 194° |
| 2026-04-27 17:02 | 58.58840 | 24.20820 | 21819 ft | 432 kts | 194° |
| 2026-04-27 17:02 | 58.55896 | 24.19539 | 22246 ft | 436 kts | 194° |
| 2026-04-27 17:03 | 58.52925 | 24.18249 | 22638 ft | 439 kts | 194° |
| 2026-04-27 17:03 | 58.49976 | 24.16969 | 23033 ft | 443 kts | 194° |
| 2026-04-27 17:03 | 58.46957 | 24.15663 | 23427 ft | 446 kts | 194° |
| 2026-04-27 17:03 | 58.43912 | 24.14355 | 23676 ft | 452 kts | 196° |
| 2026-04-27 17:04 | 58.40818 | 24.13029 | 23897 ft | 458 kts | 196° |
| 2026-04-27 17:04 | 58.37698 | 24.11695 | 24195 ft | 461 kts | 196° |
| 2026-04-27 17:04 | 58.34810 | 24.10460 | 24488 ft | 464 kts | 196° |
| 2026-04-27 17:04 | 58.31690 | 24.09123 | 24794 ft | 467 kts | 196° |
| 2026-04-27 17:05 | 58.28514 | 24.07761 | 25096 ft | 469 kts | 196° |
| 2026-04-27 17:05 | 58.25320 | 24.06394 | 25405 ft | 472 kts | 196° |
| 2026-04-27 17:05 | 58.22109 | 24.05024 | 25710 ft | 474 kts | 196° |
| 2026-04-27 17:05 | 58.19972 | 24.04116 | 25900 ft | 476 kts | 196° |
| 2026-04-27 17:06 | 58.15627 | 24.02276 | 26189 ft | 482 kts | 197° |
| 2026-04-27 17:06 | 58.12343 | 24.00887 | 26416 ft | 485 kts | 197° |
| 2026-04-27 17:06 | 58.09035 | 23.99489 | 26682 ft | 488 kts | 197° |
| 2026-04-27 17:06 | 58.05720 | 23.98088 | 26967 ft | 490 kts | 196° |
| 2026-04-27 17:07 | 58.02437 | 23.96705 | 27355 ft | 490 kts | 196° |
| 2026-04-27 17:07 | 57.99104 | 23.95305 | 27663 ft | 492 kts | 196° |
| 2026-04-27 17:07 | 57.95756 | 23.93898 | 27941 ft | 494 kts | 196° |
| 2026-04-27 17:07 | 57.92394 | 23.92491 | 28237 ft | 496 kts | 196° |
| 2026-04-27 17:08 | 57.89026 | 23.91102 | 28572 ft | 496 kts | 197° |
| 2026-04-27 17:08 | 57.85632 | 23.89828 | 28862 ft | 499 kts | 195° |
| 2026-04-27 17:08 | 57.82211 | 23.88676 | 29196 ft | 500 kts | 194° |
| 2026-04-27 17:08 | 57.78776 | 23.87599 | 29563 ft | 500 kts | 194° |
| 2026-04-27 17:09 | 57.75387 | 23.86571 | 29912 ft | 501 kts | 194° |
| 2026-04-27 17:09 | 57.71948 | 23.85522 | 30244 ft | 500 kts | 194° |